Weather reports worldwide

Advertisment
Wick Airport, United Kingdom (2003075): temperature & dewpoint: 16.09.2018 14:00:00 - 22.09.2018 14:00:00 (BST)Wick Airport, United Kingdom (2003075): wind speed: 16.09.2018 14:00:00 - 22.09.2018 14:00:00 (BST)Wick Airport, United Kingdom (2003075): wind direction: 16.09.2018 14:00:00 - 22.09.2018 14:00:00 (BST)Wick Airport, United Kingdom (2003075): visibility: 16.09.2018 14:00:00 - 22.09.2018 14:00:00 (BST)
Date & Time tt [°C] td [°C] ff [km/h] ff [kn] dd vv [km]
22.09.2018 14:00:00 11,0 8,0 35 19 NW 10
22.09.2018 13:00:00 11,0 8,0 31 17 WNW 10
22.09.2018 12:00:00 11,0 9,0 34 18 WNW 10
22.09.2018 11:00:00 10,0 8,0 37 20 WNW 10
22.09.2018 10:00:00 9,0 7,0 34 18 NW 10
22.09.2018 09:00:00 9,0 7,0 35 19 NW 10
22.09.2018 08:00:00 9,0 7,0 35 19 WNW 10
22.09.2018 07:00:00 9,0 8,0 35 19 WNW 8
22.09.2018 06:00:00 8,0 7,0 35 19 W 4,1
22.09.2018 05:00:00 8,0 5,0 26 14 W 10
22.09.2018 04:00:00 7,0 4,0 29 16 W 10
22.09.2018 03:00:00 8,0 4,0 29 16 W 10
22.09.2018 02:00:00 8,0 4,0 35 19 W 10
22.09.2018 01:00:00 7,0 4,0 31 17 W 10
22.09.2018 00:00:00 7,0 4,0 28 15 W 10
21.09.2018 23:00:00 7,0 4,0 28 15 W 10
21.09.2018 22:00:00 7,0 5,0 24 13 W 10
21.09.2018 21:00:00 7,0 5,0 21 11 W 10
21.09.2018 20:00:00 8,0 5,0 16 9 WNW 10
21.09.2018 19:00:00 9,0 5,0 34 18 WNW 10
21.09.2018 18:00:00 10,0 5,0 28 15 NW 10
21.09.2018 17:00:00 11,0 5,0 46 25 NW 10
21.09.2018 16:00:00 10,0 6,0 37 20 NW 10
21.09.2018 15:00:00 11,0 5,0 50 27 NNW 10
21.09.2018 14:00:00 10,0 5,0 37 20 NNW 10
21.09.2018 13:00:00 10,0 6,0 42 23 NNW 10
21.09.2018 12:00:00 10,0 6,0 39 21 NNW 10
21.09.2018 11:00:00 9,0 6,0 31 17 NNW 10
21.09.2018 10:00:00 9,0 6,0 34 18 N 10
21.09.2018 09:00:00 9,0 7,0 35 19 N 10
21.09.2018 08:00:00 9,0 8,0 37 20 N 10
21.09.2018 07:00:00 9,0 8,0 24 13 NNE 5
21.09.2018 06:00:00 8,0 8,0 16 9 NW 10
21.09.2018 05:00:00 8,0 7,0 13 7 WNW 10
21.09.2018 04:00:00 8,0 7,0 8 4 W 10
21.09.2018 03:00:00 9,0 7,0 4 2 W 10
21.09.2018 02:00:00 9,0 7,0 4 2 W 10
21.09.2018 01:00:00 8,0 7,0 8 4 WNW 10
21.09.2018 00:00:00 9,0 6,0 8 4 NW 10
20.09.2018 23:00:00 10,0 7,0 2 1 - 10
20.09.2018 22:00:00 10,0 7,0 5 3 - 10
20.09.2018 21:00:00 10,0 7,0 - - - -
20.09.2018 20:00:00 11,0 7,0 5 3 W 10
20.09.2018 19:00:00 12,0 7,0 11 6 WSW 10
20.09.2018 18:00:00 13,0 7,0 18 10 W 10
20.09.2018 17:00:00 13,0 7,0 24 13 W 10
20.09.2018 16:00:00 14,0 7,0 37 20 W 10
20.09.2018 15:00:00 14,0 7,0 37 20 W 10
20.09.2018 14:00:00 14,0 8,0 39 21 W 10
20.09.2018 13:00:00 13,0 7,0 57 31 W 10
20.09.2018 12:00:00 - - - - - -
20.09.2018 11:00:00 12,0 5,0 28 15 WSW 10
20.09.2018 10:00:00 12,0 6,0 31 17 SW 10
20.09.2018 09:00:00 11,0 6,0 29 16 SW 10
20.09.2018 08:00:00 10,0 4,0 28 15 WSW 10
20.09.2018 07:00:00 9,0 5,0 26 14 SW 10
20.09.2018 06:00:00 10,0 5,0 29 16 SW 10
20.09.2018 05:00:00 10,0 6,0 26 14 SW 10
20.09.2018 04:00:00 10,0 6,0 29 16 SW 10
20.09.2018 03:00:00 10,0 6,0 31 17 SW 10
20.09.2018 02:00:00 9,0 6,0 26 14 SW 10
20.09.2018 01:00:00 10,0 6,0 29 16 WSW 10
20.09.2018 00:00:00 10,0 6,0 29 16 SW 10
19.09.2018 23:00:00 10,0 5,0 29 16 SW 10
19.09.2018 22:00:00 9,0 5,0 24 13 SW 10
19.09.2018 21:00:00 10,0 5,0 22 12 SW 10
19.09.2018 20:00:00 10,0 5,0 39 21 WSW 10
19.09.2018 19:00:00 11,0 7,0 42 23 WSW 10
19.09.2018 18:00:00 11,0 7,0 42 23 W 10
19.09.2018 17:00:00 12,0 9,0 34 18 WSW 10
19.09.2018 16:00:00 13,0 9,0 29 16 SW 10
19.09.2018 15:00:00 13,0 9,0 42 23 SW 5
19.09.2018 14:00:00 13,0 11,0 67 36 SW 5
19.09.2018 13:00:00 12,0 11,0 44 24 SE 5
19.09.2018 12:00:00 11,0 9,0 39 21 SSE 5
19.09.2018 11:00:00 11,0 8,0 22 12 S 10
19.09.2018 10:00:00 12,0 8,0 21 11 S 10
19.09.2018 09:00:00 11,0 8,0 11 6 S 10
19.09.2018 08:00:00 10,0 8,0 11 6 SSW 10
19.09.2018 07:00:00 9,0 7,0 5 3 - 10
19.09.2018 06:00:00 9,0 7,0 13 7 SW 10
19.09.2018 05:00:00 10,0 6,0 16 9 SW 10
19.09.2018 04:00:00 10,0 7,0 16 9 SW 10
19.09.2018 03:00:00 12,0 9,0 34 18 SSW 10
19.09.2018 02:00:00 12,0 10,0 13 7 SSW 10
19.09.2018 01:00:00 12,0 11,0 15 8 S 10
19.09.2018 00:00:00 13,0 11,0 16 9 SSW 10
18.09.2018 23:00:00 13,0 11,0 16 9 SW 10
18.09.2018 22:00:00 12,0 10,0 8 4 S 10
18.09.2018 21:00:00 13,0 11,0 13 7 W 10
18.09.2018 20:00:00 13,0 12,0 11 6 SW 10
18.09.2018 19:00:00 13,0 12,0 9 5 SSW 10
18.09.2018 18:00:00 13,0 12,0 5 3 SSE 3,0
18.09.2018 17:00:00 13,0 12,0 2 1 ESE 5
18.09.2018 16:00:00 13,0 12,0 4 2 - 9
18.09.2018 15:00:00 13,0 12,0 4 2 NE 3,0
18.09.2018 14:00:00 13,0 12,0 8 4 ENE 10
18.09.2018 13:00:00 14,0 13,0 9 5 NNE 10
18.09.2018 12:00:00 13,0 13,0 11 6 NNE 10
18.09.2018 11:00:00 13,0 12,0 11 6 N 10
18.09.2018 10:00:00 13,0 12,0 9 5 NNW 7
18.09.2018 09:00:00 12,0 12,0 11 6 NNW 10
18.09.2018 08:00:00 12,0 12,0 9 5 NNW 9
18.09.2018 07:00:00 13,0 12,0 16 9 NW 9
18.09.2018 06:00:00 14,0 13,0 18 10 NNW 10
18.09.2018 05:00:00 16,0 14,0 13 7 SW 10
18.09.2018 04:00:00 15,0 13,0 18 10 SSW 10
18.09.2018 03:00:00 15,0 13,0 16 9 SSW 10
18.09.2018 02:00:00 15,0 14,0 22 12 SSW 10
18.09.2018 01:00:00 15,0 13,0 21 11 S 10
18.09.2018 00:00:00 15,0 13,0 26 14 S 10
17.09.2018 23:00:00 14,0 13,0 31 17 S 10
17.09.2018 22:00:00 13,0 12,0 29 16 S 10
17.09.2018 21:00:00 13,0 12,0 29 16 S 10
17.09.2018 20:00:00 13,0 11,0 29 16 S 10
17.09.2018 19:00:00 13,0 11,0 28 15 SSE 10
17.09.2018 18:00:00 12,0 11,0 21 11 SSE 10
17.09.2018 17:00:00 12,0 11,0 15 8 S 10
17.09.2018 16:00:00 13,0 12,0 13 7 S 9
17.09.2018 15:00:00 13,0 12,0 15 8 S 10
17.09.2018 14:00:00 13,0 11,0 16 9 S 10
17.09.2018 13:00:00 12,0 11,0 9 5 S 10
17.09.2018 12:00:00 12,0 11,0 16 9 S 10
17.09.2018 11:00:00 13,0 10,0 11 6 SSW 10
17.09.2018 10:00:00 13,0 10,0 13 7 SSW 10
17.09.2018 09:00:00 12,0 10,0 8 4 SSW 10
17.09.2018 08:00:00 11,0 9,0 8 4 SSW 10
17.09.2018 07:00:00 11,0 9,0 4 2 - 10
17.09.2018 06:00:00 11,0 9,0 15 8 SW 10
17.09.2018 05:00:00 10,0 8,0 13 7 SW 10
17.09.2018 04:00:00 11,0 9,0 15 8 SW 10
17.09.2018 03:00:00 11,0 9,0 21 11 SSW 10
17.09.2018 02:00:00 11,0 8,0 18 10 SW 10
17.09.2018 01:00:00 11,0 7,0 16 9 SSW 10
17.09.2018 00:00:00 10,0 6,0 15 8 SW 10
16.09.2018 23:00:00 10,0 6,0 11 6 SW 10
16.09.2018 22:00:00 10,0 6,0 5 3 - 10
16.09.2018 21:00:00 11,0 6,0 13 7 WSW 10
16.09.2018 20:00:00 11,0 6,0 11 6 WSW 10
16.09.2018 19:00:00 11,0 6,0 11 6 W 10
16.09.2018 18:00:00 12,0 5,0 24 13 W 10
16.09.2018 17:00:00 13,0 5,0 34 18 W 10
16.09.2018 16:00:00 13,0 5,0 29 16 W 10
16.09.2018 15:00:00 13,0 7,0 42 23 W 10
16.09.2018 14:00:00 12,0 9,0 39 21 WNW 10

tt = temperature
td = dewpoint
ff = wind speed
dd = wind direction
vv = visibility

Next stations